createdAt,value
2023-01-03T00:01:30.946Z,3.42
2023-01-03T00:04:00.892Z,3.39
2023-01-03T00:06:33.941Z,3.38
2023-01-03T00:09:03.359Z,3.36
2023-01-03T00:11:52.678Z,3.36
2023-01-03T00:14:23.364Z,3.37
2023-01-03T00:16:53.260Z,3.37
2023-01-03T00:19:22.549Z,3.34
2023-01-03T00:21:50.629Z,3.31
2023-01-03T00:24:18.960Z,3.29
2023-01-03T00:26:48.599Z,3.29
2023-01-03T00:29:17.480Z,3.27
2023-01-03T00:31:45.617Z,3.18
2023-01-03T00:34:14.220Z,3.13
2023-01-03T00:36:42.322Z,3.17
2023-01-03T00:39:12.056Z,3.20
2023-01-03T00:41:40.995Z,3.15
2023-01-03T00:44:10.734Z,3.14
2023-01-03T00:46:38.990Z,3.10
2023-01-03T00:49:07.354Z,3.10
2023-01-03T00:51:37.592Z,3.02
2023-01-03T00:54:06.992Z,2.95
2023-01-03T00:56:37.132Z,2.94
2023-01-03T00:59:06.476Z,2.86
2023-01-03T01:01:46.223Z,2.84
2023-01-03T01:04:21.258Z,2.80
2023-01-03T01:06:51.946Z,2.81
2023-01-03T01:09:22.379Z,2.79
2023-01-03T01:11:51.608Z,2.81
2023-01-03T01:14:21.808Z,2.83
2023-01-03T01:16:54.464Z,2.80
2023-01-03T01:19:29.090Z,2.83
2023-01-03T01:21:57.656Z,2.80
2023-01-03T01:24:26.522Z,2.76
2023-01-03T01:26:54.762Z,2.69
2023-01-03T01:29:23.105Z,2.60
2023-01-03T01:31:52.717Z,2.60
2023-01-03T01:34:20.941Z,2.62
2023-01-03T01:36:50.049Z,2.67
2023-01-03T01:39:21.212Z,2.77
2023-01-03T01:42:08.668Z,2.77
2023-01-03T01:44:52.276Z,2.81
2023-01-03T01:47:27.789Z,2.73
2023-01-03T01:50:00.833Z,2.63
2023-01-03T01:52:31.433Z,2.66
2023-01-03T01:55:01.063Z,2.65
2023-01-03T01:57:30.954Z,2.66
2023-01-03T01:59:59.452Z,2.55
2023-01-03T02:02:29.081Z,2.52
2023-01-03T02:04:58.659Z,2.48
2023-01-03T02:07:26.658Z,2.39
2023-01-03T02:09:58.041Z,2.38
2023-01-03T02:12:57.998Z,2.41
2023-01-03T02:15:40.142Z,2.45
2023-01-03T02:18:25.805Z,2.38
2023-01-03T02:21:20.303Z,2.34
2023-01-03T02:24:20.201Z,2.29
2023-01-03T02:26:59.219Z,2.28
2023-01-03T02:29:54.409Z,2.34
2023-01-03T02:32:35.066Z,2.39
2023-01-03T02:35:11.463Z,2.38
2023-01-03T02:37:46.084Z,2.32
2023-01-03T02:40:22.265Z,2.34
2023-01-03T02:43:02.410Z,2.33
2023-01-03T02:45:54.187Z,2.28
2023-01-03T02:48:35.878Z,2.16
2023-01-03T02:51:08.709Z,2.10
2023-01-03T02:53:43.052Z,2.06
2023-01-03T02:56:16.999Z,2.01
2023-01-03T02:58:49.550Z,2.04
2023-01-03T03:01:19.667Z,2.04
2023-01-03T03:03:50.374Z,2.04
2023-01-03T03:06:27.664Z,2.07
2023-01-03T03:08:56.381Z,2.03
2023-01-03T03:11:45.609Z,1.98
2023-01-03T03:14:19.102Z,1.93
2023-01-03T03:16:50.515Z,1.91
2023-01-03T03:19:46.488Z,1.87
2023-01-03T03:22:47.152Z,1.85
2023-01-03T03:25:21.306Z,1.84
2023-01-03T03:28:10.119Z,1.84
2023-01-03T03:30:41.751Z,1.85
2023-01-03T03:33:13.090Z,1.86
2023-01-03T03:35:48.540Z,1.79
2023-01-03T03:38:24.756Z,1.81
2023-01-03T03:41:17.367Z,1.75
2023-01-03T03:44:10.441Z,1.73
2023-01-03T03:46:52.436Z,1.68
2023-01-03T03:49:42.568Z,1.65
2023-01-03T03:52:16.739Z,1.62
2023-01-03T03:54:54.934Z,1.60
2023-01-03T03:57:28.333Z,1.60
2023-01-03T04:00:01.341Z,1.56
2023-01-03T04:02:32.012Z,1.54
2023-01-03T04:05:06.005Z,1.58
2023-01-03T04:07:35.702Z,1.62
2023-01-03T04:10:03.775Z,1.65
2023-01-03T04:12:31.883Z,1.68
2023-01-03T04:15:00.057Z,1.68
2023-01-03T04:17:28.282Z,1.64
2023-01-03T04:19:56.540Z,1.57
2023-01-03T04:22:24.628Z,1.54
2023-01-03T04:24:54.115Z,1.52
2023-01-03T04:27:22.267Z,1.57
2023-01-03T04:29:50.294Z,1.62
2023-01-03T04:32:18.328Z,1.62
2023-01-03T04:34:46.446Z,1.61
2023-01-03T04:37:14.555Z,1.55
2023-01-03T04:39:42.828Z,1.47
2023-01-03T04:42:26.071Z,1.41
2023-01-03T04:44:54.417Z,1.38
2023-01-03T04:47:22.482Z,1.42
2023-01-03T04:49:50.480Z,1.46
2023-01-03T04:52:19.640Z,1.43
2023-01-03T04:54:47.743Z,1.44
2023-01-03T04:57:17.773Z,1.42
2023-01-03T04:59:45.909Z,1.41
2023-01-03T05:02:14.047Z,1.39
2023-01-03T05:04:42.290Z,1.44
2023-01-03T05:07:10.465Z,1.49
2023-01-03T05:09:38.506Z,1.45
2023-01-03T05:12:07.296Z,1.37
2023-01-03T05:14:37.275Z,1.35
2023-01-03T05:17:05.504Z,1.37
2023-01-03T05:19:33.702Z,1.42
2023-01-03T05:22:19.085Z,1.39
2023-01-03T05:25:19.329Z,1.28
2023-01-03T05:27:47.493Z,1.19
2023-01-03T05:30:17.444Z,1.19
2023-01-03T05:32:46.171Z,1.19
2023-01-03T05:35:14.364Z,1.19
2023-01-03T05:37:42.506Z,1.16
2023-01-03T05:40:11.512Z,1.16
2023-01-03T05:42:39.641Z,1.14
2023-01-03T05:45:09.101Z,1.19
2023-01-03T05:47:38.603Z,1.19
2023-01-03T05:50:07.795Z,1.25
2023-01-03T05:52:35.888Z,1.23
2023-01-03T05:55:04.223Z,1.23
2023-01-03T05:57:35.574Z,1.22
2023-01-03T06:00:04.701Z,1.21
2023-01-03T06:02:33.162Z,1.25
2023-01-03T06:05:03.144Z,1.29
2023-01-03T06:07:33.055Z,1.29
2023-01-03T06:10:01.547Z,1.39
2023-01-03T06:12:30.306Z,1.45
2023-01-03T06:14:58.386Z,1.41
2023-01-03T06:17:44.166Z,1.35
2023-01-03T06:20:13.778Z,1.35
2023-01-03T06:22:41.904Z,1.32
2023-01-03T06:25:10.560Z,1.32
2023-01-03T06:27:38.635Z,1.32
2023-01-03T06:30:08.047Z,1.35
2023-01-03T06:32:36.233Z,1.42
2023-01-03T06:35:04.571Z,1.47
2023-01-03T06:37:34.155Z,1.48
2023-01-03T06:40:02.377Z,1.52
2023-01-03T06:42:44.034Z,1.54
2023-01-03T06:45:32.489Z,1.57
2023-01-03T06:48:22.990Z,1.63
2023-01-03T06:51:08.832Z,1.66
2023-01-03T06:53:40.877Z,1.73
2023-01-03T06:56:09.804Z,1.87
2023-01-03T06:58:38.041Z,1.99
2023-01-03T07:01:07.762Z,2.06
2023-01-03T07:03:36.073Z,2.15
2023-01-03T07:06:04.625Z,2.17
2023-01-03T07:08:32.778Z,2.22
2023-01-03T07:11:02.581Z,2.25
2023-01-03T07:13:48.113Z,2.37
2023-01-03T07:16:16.972Z,2.43
2023-01-03T07:18:50.836Z,2.45
2023-01-03T07:21:23.699Z,2.46
2023-01-03T07:23:53.683Z,2.53
2023-01-03T07:26:25.421Z,2.53
2023-01-03T07:28:53.723Z,2.54
2023-01-03T07:31:21.933Z,2.62
2023-01-03T07:33:50.272Z,2.68
2023-01-03T07:36:18.746Z,2.81
2023-01-03T07:38:47.350Z,2.95
2023-01-03T07:41:16.265Z,3.00
2023-01-03T07:43:46.894Z,3.12
2023-01-03T07:46:17.897Z,3.18
2023-01-03T07:48:48.012Z,3.21
2023-01-03T07:51:18.475Z,3.25
2023-01-03T07:53:46.625Z,3.32
2023-01-03T07:56:16.587Z,3.37
2023-01-03T07:58:46.357Z,3.43
2023-01-03T08:01:16.506Z,3.47
2023-01-03T08:03:45.812Z,3.52
2023-01-03T08:06:15.637Z,3.70
2023-01-03T08:08:44.520Z,3.77
2023-01-03T08:11:31.901Z,3.83
2023-01-03T08:14:01.462Z,3.94
2023-01-03T08:16:29.676Z,4.05
2023-01-03T08:18:57.668Z,4.17
2023-01-03T08:21:25.749Z,4.23
2023-01-03T08:23:53.975Z,4.34
2023-01-03T08:26:22.168Z,4.53
2023-01-03T08:28:50.251Z,4.67
2023-01-03T08:31:23.411Z,4.76
2023-01-03T08:33:55.262Z,4.85
2023-01-03T08:36:25.137Z,4.98
2023-01-03T08:38:58.273Z,5.13
2023-01-03T08:41:30.013Z,5.29
2023-01-03T08:44:00.945Z,5.40
2023-01-03T08:46:33.270Z,5.48
2023-01-03T08:49:01.829Z,5.57
2023-01-03T08:51:30.137Z,5.65
2023-01-03T08:53:58.434Z,5.81
2023-01-03T08:56:26.575Z,5.94
2023-01-03T08:58:57.721Z,6.06
2023-01-03T09:01:26.391Z,6.19
2023-01-03T09:03:56.062Z,6.29
2023-01-03T09:06:24.178Z,6.42
2023-01-03T09:08:52.349Z,6.50
2023-01-03T09:11:21.688Z,6.56
2023-01-03T09:13:49.872Z,6.65
2023-01-03T09:16:17.930Z,6.75
2023-01-03T09:18:47.297Z,6.86
2023-01-03T09:21:16.817Z,6.97
2023-01-03T09:23:45.544Z,7.19
2023-01-03T09:26:13.689Z,7.16
2023-01-03T09:28:41.885Z,7.24
2023-01-03T09:31:09.946Z,7.30
2023-01-03T09:33:38.177Z,7.38
2023-01-03T09:36:06.895Z,7.49
2023-01-03T09:38:36.650Z,7.70
2023-01-03T09:41:09.135Z,7.75
2023-01-03T09:43:41.670Z,7.84
2023-01-03T09:46:18.483Z,8.00
2023-01-03T09:48:48.467Z,8.13
2023-01-03T09:51:38.121Z,8.19
2023-01-03T09:54:30.338Z,8.30
2023-01-03T09:57:16.114Z,8.41
2023-01-03T10:00:01.683Z,8.54
2023-01-03T10:03:03.065Z,8.61
2023-01-03T10:05:52.483Z,8.76
2023-01-03T10:08:33.207Z,8.77
2023-01-03T10:11:07.974Z,8.90
2023-01-03T10:13:53.616Z,8.99
2023-01-03T10:16:36.880Z,9.08
2023-01-03T10:19:30.464Z,9.21
2023-01-03T10:22:09.172Z,9.31
2023-01-03T10:24:46.828Z,9.37
2023-01-03T10:27:19.397Z,9.49
2023-01-03T10:29:49.328Z,9.62
2023-01-03T10:32:40.629Z,9.75
2023-01-03T10:35:29.384Z,9.83
2023-01-03T10:37:59.324Z,9.92
2023-01-03T10:40:40.134Z,10.03
2023-01-03T10:43:19.222Z,10.07
2023-01-03T10:45:56.572Z,10.09
2023-01-03T10:48:26.313Z,10.19
2023-01-03T10:50:54.599Z,10.25
2023-01-03T10:53:24.169Z,10.32
2023-01-03T10:55:55.293Z,10.53
2023-01-03T10:58:34.130Z,10.53
2023-01-03T11:01:22.807Z,10.60
2023-01-03T11:04:16.055Z,10.67
2023-01-03T11:07:04.550Z,10.76
2023-01-03T11:09:48.701Z,10.83
2023-01-03T11:12:25.277Z,10.84
2023-01-03T11:14:56.505Z,10.83
2023-01-03T11:17:25.770Z,10.87
2023-01-03T11:19:54.704Z,10.95
2023-01-03T11:22:41.373Z,11.02
2023-01-03T11:25:26.895Z,11.04
2023-01-03T11:28:28.473Z,11.41
2023-01-03T11:31:04.634Z,11.25
2023-01-03T11:33:53.567Z,11.21
2023-01-03T11:36:48.718Z,11.25
2023-01-03T11:39:34.809Z,11.37
2023-01-03T11:42:38.917Z,11.50
2023-01-03T11:45:43.187Z,11.59
2023-01-03T11:48:35.582Z,11.69
2023-01-03T11:51:14.006Z,11.84
2023-01-03T11:53:57.817Z,11.86
2023-01-03T11:56:30.641Z,11.93
2023-01-03T11:59:37.395Z,12.03
2023-01-03T12:02:40.052Z,11.98
2023-01-03T12:05:35.312Z,11.99
2023-01-03T12:08:17.903Z,11.96
2023-01-03T12:10:52.629Z,12.04
2023-01-03T12:13:29.848Z,12.16
2023-01-03T12:16:05.487Z,12.23
2023-01-03T12:18:47.782Z,12.28
2023-01-03T12:21:21.925Z,12.27
2023-01-03T12:23:58.351Z,12.35
2023-01-03T12:26:28.042Z,12.53
2023-01-03T12:29:02.591Z,12.54
2023-01-03T12:31:38.484Z,12.53
2023-01-03T12:34:14.152Z,12.59
2023-01-03T12:36:52.598Z,12.69
2023-01-03T12:39:37.166Z,12.86
2023-01-03T12:42:16.202Z,12.83
2023-01-03T12:44:47.687Z,12.86
2023-01-03T12:47:25.128Z,12.89
2023-01-03T12:50:00.393Z,12.99
2023-01-03T12:52:31.914Z,13.01
2023-01-03T12:55:05.142Z,13.11
2023-01-03T12:58:00.204Z,13.07
2023-01-03T13:00:43.800Z,13.14
2023-01-03T13:03:21.309Z,13.23
2023-01-03T13:05:52.455Z,13.29
2023-01-03T13:08:31.496Z,13.29
2023-01-03T13:11:04.317Z,13.36
2023-01-03T13:13:34.247Z,13.38
2023-01-03T13:16:39.319Z,13.49
2023-01-03T13:19:40.460Z,13.50
2023-01-03T13:22:26.712Z,13.50
2023-01-03T13:25:29.874Z,13.55
2023-01-03T13:27:59.967Z,13.54
2023-01-03T13:30:30.706Z,13.60
2023-01-03T13:33:20.554Z,13.54
2023-01-03T13:36:02.436Z,13.48
2023-01-03T13:38:32.943Z,13.47
2023-01-03T13:41:20.035Z,13.53
2023-01-03T13:43:51.572Z,13.46
2023-01-03T13:46:24.925Z,13.49
2023-01-03T13:49:00.156Z,13.54
2023-01-03T13:51:36.406Z,13.43
2023-01-03T13:54:25.648Z,13.46
2023-01-03T13:57:07.241Z,13.49
2023-01-03T13:59:42.958Z,13.45
2023-01-03T14:02:55.453Z,13.46
2023-01-03T14:05:56.791Z,13.43
2023-01-03T14:08:37.761Z,13.41
2023-01-03T14:11:33.553Z,13.39
2023-01-03T14:14:09.398Z,13.39
2023-01-03T14:16:46.790Z,13.40
2023-01-03T14:19:23.051Z,13.38
2023-01-03T14:21:57.736Z,13.40
2023-01-03T14:24:28.658Z,13.37
2023-01-03T14:27:04.485Z,13.32
2023-01-03T14:29:42.747Z,13.32
2023-01-03T14:32:19.783Z,13.31
2023-01-03T14:34:47.930Z,13.28
2023-01-03T14:37:17.911Z,13.30
2023-01-03T14:39:56.624Z,13.27
2023-01-03T14:42:25.704Z,13.16
2023-01-03T14:44:58.555Z,13.14
2023-01-03T14:47:33.444Z,13.06
2023-01-03T14:50:02.685Z,12.94
2023-01-03T14:52:34.162Z,12.90
2023-01-03T14:55:05.762Z,12.80
2023-01-03T14:57:43.123Z,12.77
2023-01-03T15:00:20.090Z,12.67
2023-01-03T15:02:50.139Z,12.59
2023-01-03T15:05:29.150Z,12.50
2023-01-03T15:08:08.582Z,12.44
2023-01-03T15:10:45.278Z,12.37
2023-01-03T15:13:21.444Z,12.32
2023-01-03T15:15:56.566Z,12.34
2023-01-03T15:18:26.724Z,12.35
2023-01-03T15:20:56.766Z,12.27
2023-01-03T15:23:34.965Z,12.18
2023-01-03T15:26:03.004Z,12.13
2023-01-03T15:28:33.304Z,12.12
2023-01-03T15:31:16.480Z,12.05
2023-01-03T15:33:45.737Z,11.98
2023-01-03T15:36:19.147Z,11.90
2023-01-03T15:38:50.148Z,11.81
2023-01-03T15:41:44.537Z,11.67
2023-01-03T15:44:13.748Z,11.52
2023-01-03T15:46:46.615Z,11.44
2023-01-03T15:49:17.673Z,11.36
2023-01-03T15:51:45.833Z,11.30
2023-01-03T15:54:14.825Z,11.27
2023-01-03T15:56:49.616Z,11.26
2023-01-03T15:59:24.720Z,11.25
2023-01-03T16:01:54.721Z,11.22
2023-01-03T16:04:23.330Z,11.20
2023-01-03T16:06:52.822Z,11.15
2023-01-03T16:09:22.106Z,11.07
2023-01-03T16:11:53.288Z,10.98
2023-01-03T16:14:24.583Z,10.89
2023-01-03T16:16:57.510Z,10.80
2023-01-03T16:19:28.969Z,10.73
2023-01-03T16:24:49.391Z,10.63
2023-01-03T16:27:20.502Z,10.55
2023-01-03T16:29:49.628Z,10.47
2023-01-03T16:32:23.250Z,10.41
2023-01-03T16:34:52.077Z,10.38
2023-01-03T16:37:20.249Z,10.39
2023-01-03T16:39:49.064Z,10.37
2023-01-03T16:42:18.350Z,10.35
2023-01-03T16:44:47.911Z,10.26
2023-01-03T16:47:18.671Z,10.18
2023-01-03T16:49:52.701Z,10.12
2023-01-03T16:52:26.745Z,10.09
2023-01-03T16:54:55.688Z,10.04
2023-01-03T16:57:24.406Z,10.01
2023-01-03T16:59:52.547Z,9.96
2023-01-03T17:02:20.875Z,9.94
2023-01-03T17:04:50.491Z,9.87
2023-01-03T17:07:22.592Z,9.81
2023-01-03T17:09:52.450Z,9.72
2023-01-03T17:12:24.335Z,9.65
2023-01-03T17:14:53.940Z,9.63
2023-01-03T17:17:24.496Z,9.54
2023-01-03T17:20:09.735Z,9.47
2023-01-03T17:22:37.961Z,9.41
2023-01-03T17:25:06.666Z,9.36
2023-01-03T17:27:34.824Z,9.32
2023-01-03T17:30:08.700Z,9.27
2023-01-03T17:32:36.997Z,9.32
2023-01-03T17:35:07.513Z,9.19
2023-01-03T17:37:58.289Z,9.18
2023-01-03T17:40:33.244Z,9.27
2023-01-03T17:43:02.493Z,9.28
2023-01-03T17:45:49.827Z,9.22
2023-01-03T17:48:35.500Z,9.11
2023-01-03T17:51:05.812Z,9.20
2023-01-03T17:53:33.978Z,9.14
2023-01-03T17:56:02.228Z,9.24
2023-01-03T17:58:33.315Z,9.17
2023-01-03T18:01:01.552Z,9.13
2023-01-03T18:03:31.219Z,9.01
2023-01-03T18:06:03.391Z,8.89
2023-01-03T18:08:33.991Z,8.75
2023-01-03T18:11:02.179Z,8.62
2023-01-03T18:13:34.573Z,8.56
2023-01-03T18:16:03.160Z,8.51
2023-01-03T18:18:33.016Z,8.46
2023-01-03T18:21:03.422Z,8.44
2023-01-03T18:23:34.918Z,8.41
2023-01-03T18:26:07.323Z,8.33
2023-01-03T18:28:35.947Z,8.32
2023-01-03T18:31:04.154Z,8.34
2023-01-03T18:33:32.422Z,8.27
2023-01-03T18:36:02.212Z,8.27
2023-01-03T18:38:34.619Z,8.18
2023-01-03T18:41:05.757Z,8.10
2023-01-03T18:43:35.023Z,7.98
2023-01-03T18:46:04.998Z,7.93
2023-01-03T18:48:33.170Z,7.87
2023-01-03T18:51:01.213Z,7.80
2023-01-03T18:53:34.529Z,7.76
2023-01-03T18:56:05.280Z,7.83
2023-01-03T18:58:37.089Z,7.77
2023-01-03T19:01:06.589Z,7.66
2023-01-03T19:03:36.513Z,7.57
2023-01-03T19:06:16.953Z,7.53
2023-01-03T19:08:45.770Z,7.50
2023-01-03T19:11:19.588Z,7.48
2023-01-03T19:13:55.001Z,7.51
2023-01-03T19:16:26.699Z,7.50
2023-01-03T19:18:56.114Z,7.53
2023-01-03T19:21:25.747Z,7.57
2023-01-03T19:24:00.862Z,7.58
2023-01-03T19:26:33.946Z,7.61
2023-01-03T19:29:05.187Z,7.51
2023-01-03T19:31:41.599Z,7.46
2023-01-03T19:34:16.453Z,7.33
2023-01-03T19:36:45.046Z,7.21
2023-01-03T19:39:13.673Z,7.12
2023-01-03T19:42:04.430Z,7.02
2023-01-03T19:44:33.430Z,6.98
2023-01-03T19:47:02.074Z,6.96
2023-01-03T19:49:30.712Z,7.03
2023-01-03T19:52:00.108Z,7.05
2023-01-03T19:54:28.224Z,7.00
2023-01-03T19:56:59.800Z,6.93
2023-01-03T19:59:30.453Z,6.91
2023-01-03T20:02:24.046Z,6.89
2023-01-03T20:04:47.988Z,6.90
2023-01-03T20:07:16.282Z,6.79
2023-01-03T20:09:44.379Z,6.67
2023-01-03T20:12:16.512Z,6.56
2023-01-03T20:14:48.498Z,6.51
2023-01-03T20:17:22.328Z,6.51
2023-01-03T20:19:50.717Z,6.53
2023-01-03T20:23:01.936Z,6.48
2023-01-03T20:25:21.810Z,6.45
2023-01-03T20:27:52.158Z,6.39
2023-01-03T20:30:22.687Z,6.31
2023-01-03T20:32:51.073Z,6.29
2023-01-03T20:38:13.020Z,6.20
2023-01-03T20:40:41.343Z,6.09
2023-01-03T20:43:14.614Z,6.02
2023-01-03T20:45:43.058Z,5.95
2023-01-03T20:48:20.948Z,5.91
2023-01-03T20:50:53.419Z,5.89
2023-01-03T20:53:23.687Z,5.91
2023-01-03T20:55:53.099Z,5.89
2023-01-03T20:58:25.335Z,5.80
2023-01-03T21:01:01.657Z,5.76
2023-01-03T21:03:32.873Z,5.75
2023-01-03T21:06:01.056Z,5.69
2023-01-03T21:08:46.477Z,5.70
2023-01-03T21:11:14.720Z,5.71
2023-01-03T21:13:44.170Z,5.60
2023-01-03T21:16:21.243Z,5.68
2023-01-03T21:18:49.266Z,5.61
2023-01-03T21:21:20.633Z,5.46
2023-01-03T21:23:48.715Z,5.41
2023-01-03T21:26:16.860Z,5.39
2023-01-03T21:28:46.489Z,5.41
2023-01-03T21:31:19.298Z,5.29
2023-01-03T21:33:47.632Z,5.19
2023-01-03T21:36:23.262Z,5.18
2023-01-03T21:38:52.811Z,5.14
2023-01-03T21:41:26.036Z,5.09
2023-01-03T21:43:57.725Z,5.06
2023-01-03T21:46:26.710Z,5.03
2023-01-03T21:48:55.799Z,5.01
2023-01-03T21:51:37.871Z,4.94
2023-01-03T21:54:07.636Z,4.89
2023-01-03T21:56:45.828Z,4.88
2023-01-03T21:59:16.851Z,4.85
2023-01-03T22:02:03.092Z,4.81
2023-01-03T22:04:31.655Z,4.84
2023-01-03T22:07:02.078Z,4.79
2023-01-03T22:09:48.541Z,4.76
2023-01-03T22:12:22.882Z,4.68
2023-01-03T22:14:55.462Z,4.68
2023-01-03T22:17:23.587Z,4.60
2023-01-03T22:19:51.926Z,4.55
2023-01-03T22:22:20.080Z,4.52
2023-01-03T22:24:48.199Z,4.48
2023-01-03T22:27:16.449Z,4.46
2023-01-03T22:29:44.615Z,4.37
2023-01-03T22:32:14.371Z,4.32
2023-01-03T22:34:42.527Z,4.32
2023-01-03T22:37:10.624Z,4.24
2023-01-03T22:39:38.770Z,4.15
2023-01-03T22:42:07.020Z,4.12
2023-01-03T22:44:35.327Z,4.04
2023-01-03T22:47:04.276Z,4.00
2023-01-03T22:49:34.138Z,4.02
2023-01-03T22:52:02.385Z,3.98
2023-01-03T22:54:30.544Z,3.96
2023-01-03T22:56:58.739Z,3.90
2023-01-03T22:59:26.901Z,3.86
2023-01-03T23:01:56.032Z,3.85
2023-01-03T23:04:24.362Z,3.85
2023-01-03T23:06:55.352Z,3.86
2023-01-03T23:09:24.817Z,3.82
2023-01-03T23:12:11.217Z,3.78
2023-01-03T23:14:39.432Z,3.76
2023-01-03T23:17:25.079Z,3.75
2023-01-03T23:19:53.299Z,3.69
2023-01-03T23:22:22.900Z,3.67
2023-01-03T23:24:50.955Z,3.64
2023-01-03T23:27:19.022Z,3.61
2023-01-03T23:29:47.175Z,3.59
2023-01-03T23:32:15.379Z,3.56
2023-01-03T23:34:43.611Z,3.58
2023-01-03T23:37:11.885Z,3.67
2023-01-03T23:39:43.041Z,3.61
2023-01-03T23:42:11.371Z,3.54
2023-01-03T23:44:39.492Z,3.46
2023-01-03T23:47:12.242Z,3.44
2023-01-03T23:49:41.268Z,3.39
2023-01-03T23:52:09.734Z,3.41
2023-01-03T23:54:37.953Z,3.39
2023-01-03T23:57:07.571Z,3.34
2023-01-03T23:59:35.799Z,3.33
